This is the latest recevied weather packets stored in our database for station/object KB1FFS. If no packets are shown the sender has not sent any weather packets the latest 10 day(s).
| Time | Temp. | Humidity | Pressure | Rain* | Wind** | Luminosity | Snow |
|---|---|---|---|---|---|---|---|
| 1777663097 | 18.33° C | 53% | 1017.2 hPa | 0 mm | - | 204 W/m² | - |
| 1777662795 | 18.33° C | 52% | 1016.9 hPa | 0 mm | - | 205 W/m² | - |
| 1777662491 | 18.33° C | 52% | 1017 hPa | 0 mm | - | 204 W/m² | - |
| 1777662187 | 18.33° C | 53% | 1017.4 hPa | 0 mm | - | 182 W/m² | - |
| 1777661882 | 18.89° C | 54% | 1017.1 hPa | 0 mm | - | 191 W/m² | - |
| 1777661579 | 19.44° C | 53% | 1017.6 hPa | 0 mm | - | 154 W/m² | - |
| 1777661275 | 18.89° C | 53% | 1017.2 hPa | 0 mm | - | 303 W/m² | - |
| 1777660970 | 18.89° C | 53% | 1016.9 hPa | 0 mm | - | 388 W/m² | - |
| 1777660666 | 18.89° C | 51% | 1017.4 hPa | 0 mm | - | 282 W/m² | - |
| 1777660364 | 18.89° C | 51% | 1017.3 hPa | 0 mm | - | 334 W/m² | - |
| 1777660060 | 18.89° C | 53% | 1017.5 hPa | 0 mm | - | 330 W/m² | - |
| 1777659757 | 18.89° C | 54% | 1017.5 hPa | 0 mm | - | 372 W/m² | - |
| 1777659453 | 18.89° C | 52% | 1017.5 hPa | 0 mm | - | 293 W/m² | - |
| 1777659151 | 18.89° C | 52% | 1017.6 hPa | 0 mm | - | 361 W/m² | - |
| 1777658849 | 18.89° C | 53% | 1017.6 hPa | 0 mm | - | 377 W/m² | - |
| 1777658544 | 18.89° C | 51% | 1017.7 hPa | 0 mm | - | 309 W/m² | - |
| 1777658241 | 18.89° C | 53% | 1017.6 hPa | 0 mm | - | 558 W/m² | - |
| 1777657938 | 18.89° C | 53% | 1017.8 hPa | 0 mm | - | 558 W/m² | - |
| 1777657635 | 18.89° C | 54% | 1018 hPa | 0 mm | - | 561 W/m² | - |
| 1777657332 | 18.89° C | 56% | 1018.1 hPa | 0 mm | - | 413 W/m² | - |
| 1777657030 | 18.89° C | 53% | 1018.3 hPa | 0 mm | - | 330 W/m² | - |
| 1777656727 | 19.44° C | 52% | 1018.3 hPa | 0 mm | - | 322 W/m² | - |
| 1777656423 | 20° C | 52% | 1018 hPa | 0 mm | - | 469 W/m² | - |
| 1777656118 | 20° C | 50% | 1018.2 hPa | 0 mm | - | 538 W/m² | - |
| 1777655814 | 20° C | 53% | 1018.2 hPa | 0 mm | - | 1084 W/m² | - |
* Rain latest hour (hover to see other rain measurements)
** Current wind speed in m/s (hover to see current wind gust speed)